Time;durP1;ratioP1;P1;durP2;ratioP2;P2;SDS_P1;SDS_P2;PMS_P1;PMS_P2;Temp;Humidity;BMP_temperature;BMP_pressure;BME280_temperature;BME280_humidity;BME280_pressure;Samples;Min_cycle;Max_cycle;Signal;HPM_P1;HPM_P2
2022/10/05 00:05:37;;;;;;;14.65;9.68;;;;;;;6.67;77.49;100770.16;30730675;28;97089;-61
2022/10/05 00:20:40;;;;;;;15.82;9.23;;;;;;;6.59;77.98;100768.19;30738784;28;97289;-61
2022/10/05 00:35:40;;;;;;;15.90;8.27;;;;;;;6.58;78.63;100746.16;30780124;28;97177;-60
2022/10/05 00:51:10;;;;;;;15.23;9.55;;;;;;;6.65;78.55;100727.94;30798999;28;97117;-62
2022/10/05 01:06:21;;;;;;;13.25;8.63;;;;;;;6.61;78.39;100721.22;30784895;28;96693;-63
2022/10/05 01:21:25;;;;;;;14.88;8.35;;;;;;;6.63;78.84;100721.09;30744976;28;96846;-60
2022/10/05 01:36:35;;;;;;;18.67;8.43;;;;;;;6.58;78.77;100722.31;30743338;28;96775;-64
2022/10/05 01:52:09;;;;;;;15.00;8.07;;;;;;;6.61;79.69;100710.66;30742628;28;97342;-63
2022/10/05 02:07:21;;;;;;;16.80;9.10;;;;;;;6.47;79.36;100706.53;30710344;28;96658;-60
2022/10/05 02:22:27;;;;;;;19.60;9.70;;;;;;;6.29;79.71;100723.97;30749405;28;96601;-62
2022/10/05 02:37:49;;;;;;;17.58;10.23;;;;;;;6.20;79.65;100699.97;30736259;28;96730;-63
2022/10/05 02:52:59;;;;;;;18.05;9.98;;;;;;;6.22;80.45;100695.38;30747924;28;97046;-62
2022/10/05 03:08:10;;;;;;;17.38;9.52;;;;;;;6.26;80.28;100695.94;30735320;28;97322;-62
2022/10/05 03:23:34;;;;;;;11.25;7.43;;;;;;;6.29;80.43;100673.69;30782976;28;97180;-61
2022/10/05 03:38:42;;;;;;;9.40;6.07;;;;;;;6.45;80.91;100658.16;30783353;28;96887;-62
2022/10/05 03:53:55;;;;;;;10.57;6.50;;;;;;;6.67;81.03;100667.78;30752814;28;97754;-62
2022/10/05 04:09:04;;;;;;;13.80;9.18;;;;;;;6.73;81.11;100683.09;30798341;28;97491;-62
2022/10/05 04:24:34;;;;;;;17.08;8.00;;;;;;;6.69;80.94;100652.56;30835737;28;100134;-62
2022/10/05 04:39:53;;;;;;;15.82;7.90;;;;;;;6.82;81.17;100654.16;30840794;28;97594;-61
2022/10/05 04:55:09;;;;;;;14.93;7.68;;;;;;;7.05;81.26;100644.16;30866760;28;97307;-62
2022/10/05 05:10:12;;;;;;;12.73;7.15;;;;;;;7.13;81.44;100646.97;30817860;28;97567;-61
2022/10/05 05:25:23;;;;;;;17.97;7.70;;;;;;;7.29;81.10;100649.09;30795587;28;96781;-62
2022/10/05 05:40:30;;;;;;;19.43;8.17;;;;;;;7.54;81.08;100639.75;30783061;28;97999;-62
2022/10/05 05:55:49;;;;;;;20.93;10.87;;;;;;;7.73;80.85;100665.44;30740668;28;96687;-62
2022/10/05 06:10:59;;;;;;;31.10;18.40;;;;;;;8.09;80.99;100665.69;30739424;28;96586;-62
2022/10/05 06:26:16;;;;;;;15.53;8.77;;;;;;;10.02;81.42;100674.72;30735176;28;96581;-62
2022/10/05 06:41:25;;;;;;;14.60;7.67;;;;;;;11.50;78.75;100686.94;30780628;28;96719;-60
2022/10/05 06:56:33;;;;;;;14.70;7.50;;;;;;;12.55;77.15;100695.28;30855753;28;97452;-61
2022/10/05 07:11:58;;;;;;;9.37;5.47;;;;;;;13.94;74.81;100692.91;30851898;28;96755;-61
2022/10/05 07:27:04;;;;;;;19.90;6.73;;;;;;;14.02;72.72;100700.88;30852469;28;97584;-61
2022/10/05 07:42:17;;;;;;;9.97;5.40;;;;;;;14.94;71.70;100707.88;30849054;28;96799;-61
2022/10/05 07:57:39;;;;;;;8.73;4.87;;;;;;;15.99;69.86;100696.81;30850202;28;96761;-62
2022/10/05 08:13:21;;;;;;;5.60;3.03;;;;;;;17.18;67.36;100689.72;30851348;28;96612;-62
2022/10/05 08:28:35;;;;;;;5.40;2.50;;;;;;;18.11;62.94;100680.97;30695505;28;96782;-62
2022/10/05 08:44:03;;;;;;;2.77;2.03;;;;;;;23.57;57.08;100682.50;30860407;28;96664;-62
2022/10/05 08:59:22;;;;;;;4.67;1.70;;;;;;;25.62;46.45;100683.69;30868397;28;96664;-62
2022/10/05 09:14:52;;;;;;;5.20;2.40;;;;;;;25.62;41.64;100684.50;30864477;28;96722;-64
2022/10/05 09:30:14;;;;;;;7.57;2.57;;;;;;;25.77;41.56;100693.91;30862254;28;97222;-62
2022/10/05 09:45:56;;;;;;;3.30;1.47;;;;;;;26.30;36.38;100692.16;30859449;28;97026;-61
2022/10/05 10:01:02;;;;;;;6.17;1.70;;;;;;;25.16;37.43;100668.50;30798653;28;97093;-61
2022/10/05 10:16:27;;;;;;;4.17;1.43;;;;;;;26.87;35.74;100650.66;30826890;28;97386;-61
2022/10/05 10:31:56;;;;;;;4.37;1.10;;;;;;;28.03;30.51;100645.63;30849226;28;96820;-66
2022/10/05 10:47:09;;;;;;;3.40;1.37;;;;;;;28.91;28.48;100642.59;30849279;28;97069;-65
2022/10/05 11:02:46;;;;;;;4.00;0.90;;;;;;;32.62;23.86;100643.41;30848175;28;96832;-65
2022/10/05 11:17:56;;;;;;;2.87;1.10;;;;;;;35.61;20.83;100640.94;30796468;28;97164;-61
2022/10/05 11:33:16;;;;;;;2.73;1.17;;;;;;;42.88;14.89;100613.66;30731870;28;97489;-62
2022/10/05 11:48:30;;;;;;;3.00;1.13;;;;;;;40.93;15.25;100577.69;30730980;28;97287;-64
2022/10/05 12:03:45;;;;;;;2.33;1.00;;;;;;;39.24;15.28;100568.88;30728357;28;97703;-62
2022/10/05 12:18:55;;;;;;;3.67;1.20;;;;;;;39.82;15.46;100548.09;30748504;28;97524;-63
2022/10/05 12:34:04;;;;;;;3.07;1.10;;;;;;;34.81;18.29;100544.38;30743653;28;97200;-59
2022/10/05 12:49:04;;;;;;;3.63;1.07;;;;;;;36.92;16.91;100537.66;30743564;28;97460;-59
2022/10/05 13:04:43;;;;;;;4.20;1.25;;;;;;;40.30;14.40;100533.25;30733751;28;97753;-59
2022/10/05 13:20:01;;;;;;;3.73;1.00;;;;;;;39.53;14.67;100511.09;30742865;28;97209;-63
2022/10/05 13:35:19;;;;;;;3.83;1.10;;;;;;;36.93;16.49;100516.22;30805922;28;97852;-63
2022/10/05 13:50:29;;;;;;;3.17;1.60;;;;;;;34.22;18.96;100504.91;30745503;28;96685;-63
2022/10/05 14:05:30;;;;;;;5.00;1.23;;;;;;;32.57;20.86;100494.59;30828112;28;98055;-63
2022/10/05 14:20:33;;;;;;;2.97;1.40;;;;;;;28.62;25.30;100492.50;30822117;28;97990;-65
2022/10/05 14:35:36;;;;;;;2.70;1.33;;;;;;;25.23;29.82;100477.41;30849143;28;97351;-65
2022/10/05 14:50:58;;;;;;;3.47;1.90;;;;;;;24.35;32.25;100475.78;30829784;28;97696;-65
2022/10/05 15:06:01;;;;;;;2.80;1.43;;;;;;;22.06;35.88;100466.13;30742571;28;97132;-73
2022/10/05 15:21:22;;;;;;;11.97;2.17;;;;;;;20.59;39.17;100445.03;30738393;28;96890;-75
2022/10/05 15:36:28;;;;;;;5.07;1.80;;;;;;;19.39;41.72;100441.03;30776330;28;97837;-74
2022/10/05 15:51:34;;;;;;;6.47;2.00;;;;;;;18.24;44.38;100435.59;30842993;28;97203;-74
2022/10/05 16:22:30;;;;;;;8.33;2.33;;;;;;;16.38;48.93;100446.25;30888931;28;96991;-73
2022/10/05 16:37:45;;;;;;;5.90;2.80;;;;;;;15.71;50.94;100437.06;30880095;28;97309;-72
2022/10/05 16:52:53;;;;;;;3.60;2.30;;;;;;;15.10;52.73;100445.72;30879783;28;97520;-72
2022/10/05 17:08:24;;;;;;;7.77;2.80;;;;;;;14.64;54.24;100449.63;30862714;28;97032;-72
2022/10/05 17:23:57;;;;;;;7.13;3.10;;;;;;;14.22;55.76;100466.25;30864877;28;97238;-71
2022/10/05 17:39:16;;;;;;;6.07;3.33;;;;;;;14.07;56.73;100454.72;30862668;28;97477;-73
2022/10/05 17:55:24;;;;;;;7.53;3.90;;;;;;;13.93;57.61;100447.53;30862232;28;97087;-77
2022/10/05 18:10:14;;;;;;;6.53;3.40;;;;;;;13.67;59.01;100438.13;30835897;28;97951;-65
2022/10/05 18:25:37;;;;;;;8.10;4.17;;;;;;;13.38;60.02;100429.03;30769832;28;97113;-67
2022/10/05 18:40:49;;;;;;;7.90;4.07;;;;;;;13.15;61.27;100419.22;30801566;28;97488;-68
2022/10/05 18:56:11;;;;;;;6.17;3.80;;;;;;;12.99;62.01;100416.69;30744077;28;98104;-68
2022/10/05 19:11:24;;;;;;;9.53;4.63;;;;;;;12.77;62.78;100432.56;30806668;28;96834;-68
2022/10/05 19:26:59;;;;;;;8.87;5.27;;;;;;;12.55;64.03;100431.56;30761691;28;97118;-68
2022/10/05 19:42:14;;;;;;;11.60;5.33;;;;;;;12.35;64.27;100423.16;30726892;28;98677;-68
2022/10/05 19:57:16;;;;;;;9.07;6.13;;;;;;;12.21;65.12;100435.44;30731473;28;96789;-67
2022/10/05 20:12:17;;;;;;;7.60;4.87;;;;;;;12.19;65.52;100443.63;30730933;28;96758;-68
2022/10/05 20:27:36;;;;;;;8.98;5.05;;;;;;;12.13;65.95;100457.66;30729567;28;96704;-67
2022/10/05 20:42:36;;;;;;;7.50;4.40;;;;;;;12.09;66.61;100472.38;30742910;28;96748;-67
2022/10/05 20:57:40;;;;;;;9.90;4.95;;;;;;;11.91;66.73;100475.25;30790835;28;96832;-66
2022/10/05 21:12:41;;;;;;;8.47;5.30;;;;;;;11.62;67.61;100486.50;30866799;28;97285;-65
2022/10/05 21:27:41;;;;;;;11.18;5.88;;;;;;;11.20;68.27;100495.56;30865729;28;96735;-66
2022/10/05 21:42:41;;;;;;;16.23;5.82;;;;;;;10.90;69.02;100520.00;30863573;28;101755;-66
2022/10/05 21:57:42;;;;;;;13.35;5.82;;;;;;;10.61;69.11;100536.44;30863478;28;98987;-64
2022/10/05 22:12:45;;;;;;;10.90;6.17;;;;;;;10.42;70.33;100556.19;30861953;28;96816;-66
2022/10/05 22:27:47;;;;;;;7.97;4.37;;;;;;;11.13;71.97;100573.53;30860704;28;97725;-66
2022/10/05 22:42:47;;;;;;;10.57;4.80;;;;;;;11.37;71.06;100568.38;30856637;28;97263;-64
2022/10/05 22:57:48;;;;;;;8.00;4.47;;;;;;;11.45;71.68;100587.88;30856260;28;96900;-64
2022/10/05 23:12:55;;;;;;;6.47;3.90;;;;;;;11.98;71.63;100592.91;30857439;28;96665;-64
2022/10/05 23:27:56;;;;;;;5.00;3.50;;;;;;;12.31;71.57;100608.84;30856215;28;96799;-68
2022/10/05 23:42:56;;;;;;;4.88;2.97;;;;;;;12.71;71.52;100615.03;30852928;28;117736;-67
2022/10/05 23:57:56;;;;;;;5.18;3.30;;;;;;;12.56;70.67;100620.31;30850119;28;118360;-64
